Almondsbury, United Kingdom
Current Conditions -  °F | °C
As of 6:50 PM on Sunday 23 Nov 2014 (Local Time) from EGGD Reporting Station
Clear Clear  
Wind Chill: 39°   Ceiling: Unl
Heat Index: 43°   Visibility: 6mi
Dew Point: 37°   Wind: 6mph
Humidity: 81%   Direction: 310°NW
Pressure: 30.12"   Gusts: NA
Location:  51.55°N, 2.57°W
Report Text: EGGD 231850Z 31005KT CAVOK 06/03 Q1020
Loading
Personal Weather Stations






























Interactive Weather Map New forecast layout! Learn more

10-Day Weather Forecast

Advertisements
Track Severe Weather on mobile